createdAt,value
2023-08-25T00:02:17.316Z,4.75
2023-08-25T00:04:45.297Z,4.50
2023-08-25T00:07:13.405Z,4.78
2023-08-25T00:09:41.216Z,4.82
2023-08-25T00:12:09.603Z,4.57
2023-08-25T00:14:37.551Z,4.72
2023-08-25T00:17:05.815Z,4.65
2023-08-25T00:19:33.684Z,4.75
2023-08-25T00:22:01.910Z,4.60
2023-08-25T00:24:33.042Z,4.88
2023-08-25T00:27:01.646Z,5.35
2023-08-25T00:29:29.579Z,6.10
2023-08-25T00:31:57.772Z,4.63
2023-08-25T00:34:25.730Z,4.65
2023-08-25T00:36:54.795Z,4.57
2023-08-25T00:39:22.762Z,4.70
2023-08-25T00:41:52.087Z,4.50
2023-08-25T00:44:22.338Z,4.72
2023-08-25T00:46:51.295Z,4.88
2023-08-25T00:49:19.940Z,5.30
2023-08-25T00:51:50.750Z,4.78
2023-08-25T00:54:20.263Z,4.43
2023-08-25T00:56:51.196Z,4.90
2023-08-25T00:59:19.384Z,5.10
2023-08-25T01:01:48.199Z,4.57
2023-08-25T01:04:16.369Z,4.88
2023-08-25T01:06:44.720Z,4.97
2023-08-25T01:09:17.537Z,5.07
2023-08-25T01:12:11.004Z,4.97
2023-08-25T01:15:05.813Z,4.18
2023-08-25T01:17:51.905Z,4.82
2023-08-25T01:20:23.447Z,4.63
2023-08-25T01:22:54.675Z,3.95
2023-08-25T01:25:33.022Z,4.00
2023-08-25T01:28:04.173Z,3.90
2023-08-25T01:33:02.393Z,3.50
2023-08-25T01:35:46.945Z,3.97
2023-08-25T01:38:24.115Z,3.88
2023-08-25T01:41:27.577Z,3.53
2023-08-25T01:43:56.342Z,3.50
2023-08-25T01:46:25.342Z,3.80
2023-08-25T01:48:56.559Z,3.70
2023-08-25T01:51:24.660Z,3.70
2023-08-25T01:53:56.992Z,3.38
2023-08-25T01:56:25.312Z,3.38
2023-08-25T01:58:54.122Z,3.95
2023-08-25T02:01:22.339Z,3.72
2023-08-25T02:03:50.735Z,3.67
2023-08-25T02:06:19.856Z,3.47
2023-08-25T02:08:48.102Z,4.20
2023-08-25T02:11:16.320Z,3.45
2023-08-25T02:13:45.263Z,3.58
2023-08-25T02:16:13.508Z,3.78
2023-08-25T02:18:42.309Z,3.85
2023-08-25T02:21:10.197Z,3.65
2023-08-25T02:23:38.357Z,3.45
2023-08-25T02:26:06.434Z,3.17
2023-08-25T02:28:34.491Z,3.65
2023-08-25T02:31:04.409Z,3.20
2023-08-25T02:33:36.515Z,3.42
2023-08-25T02:36:04.755Z,4.15
2023-08-25T02:38:32.975Z,3.50
2023-08-25T02:41:00.838Z,2.95
2023-08-25T02:43:29.031Z,3.60
2023-08-25T02:46:00.921Z,2.78
2023-08-25T02:48:29.184Z,2.50
2023-08-25T02:50:59.483Z,2.92
2023-08-25T02:53:27.763Z,2.50
2023-08-25T02:55:55.636Z,2.78
2023-08-25T02:58:24.480Z,2.58
2023-08-25T03:00:52.430Z,3.08
2023-08-25T03:03:20.629Z,2.40
2023-08-25T03:05:50.706Z,2.67
2023-08-25T03:08:21.334Z,2.38
2023-08-25T03:10:49.254Z,2.30
2023-08-25T03:13:22.595Z,2.30
2023-08-25T03:15:56.249Z,2.95
2023-08-25T03:18:24.687Z,2.25
2023-08-25T03:20:53.388Z,2.65
2023-08-25T03:23:23.011Z,2.55
2023-08-25T03:25:51.684Z,2.50
2023-08-25T03:28:19.935Z,2.42
2023-08-25T03:30:52.516Z,2.30
2023-08-25T03:33:22.817Z,2.72
2023-08-25T03:35:51.112Z,2.17
2023-08-25T03:38:21.114Z,2.08
2023-08-25T03:40:48.966Z,2.00
2023-08-25T03:43:17.163Z,1.92
2023-08-25T03:45:45.070Z,2.10
2023-08-25T03:48:14.061Z,2.20
2023-08-25T03:50:46.608Z,2.22
2023-08-25T03:53:15.415Z,1.90
2023-08-25T03:55:43.352Z,2.00
2023-08-25T03:58:13.469Z,2.10
2023-08-25T04:00:41.375Z,2.00
2023-08-25T04:03:09.679Z,2.40
2023-08-25T04:05:37.635Z,2.20
2023-08-25T04:08:06.319Z,2.08
2023-08-25T04:10:35.831Z,1.90
2023-08-25T04:13:04.222Z,2.10
2023-08-25T04:15:32.132Z,2.67
2023-08-25T04:18:00.767Z,2.50
2023-08-25T04:20:28.804Z,2.28
2023-08-25T04:22:57.196Z,2.30
2023-08-25T04:25:26.804Z,2.13
2023-08-25T04:27:55.359Z,2.13
2023-08-25T04:30:26.690Z,2.35
2023-08-25T04:32:58.362Z,2.35
2023-08-25T04:35:28.855Z,2.38
2023-08-25T04:37:58.263Z,2.20
2023-08-25T04:40:26.408Z,2.13
2023-08-25T04:42:55.642Z,2.15
2023-08-25T04:45:23.846Z,2.20
2023-08-25T04:47:52.834Z,2.17
2023-08-25T04:50:23.000Z,2.10
2023-08-25T04:52:51.918Z,2.10
2023-08-25T04:55:20.964Z,2.10
2023-08-25T04:57:49.443Z,1.83
2023-08-25T05:00:17.556Z,1.70
2023-08-25T05:02:49.234Z,2.17
2023-08-25T05:05:19.403Z,1.80
2023-08-25T05:07:47.694Z,1.90
2023-08-25T05:10:16.062Z,1.90
2023-08-25T05:12:46.398Z,1.80
2023-08-25T05:15:14.993Z,2.20
2023-08-25T05:17:43.434Z,1.70
2023-08-25T05:20:13.484Z,2.30
2023-08-25T05:22:41.822Z,1.75
2023-08-25T05:25:10.472Z,1.85
2023-08-25T05:27:38.864Z,1.85
2023-08-25T05:30:07.445Z,1.88
2023-08-25T05:32:37.814Z,1.90
2023-08-25T05:35:23.363Z,2.20
2023-08-25T05:37:51.956Z,1.70
2023-08-25T05:40:20.291Z,1.90
2023-08-25T05:42:50.037Z,1.83
2023-08-25T05:45:18.026Z,1.98
2023-08-25T05:47:46.394Z,1.80
2023-08-25T05:50:15.657Z,1.70
2023-08-25T05:52:46.392Z,1.65
2023-08-25T05:55:14.935Z,1.65
2023-08-25T05:57:43.193Z,1.75
2023-08-25T06:00:12.091Z,1.80
2023-08-25T06:02:43.789Z,1.77
2023-08-25T06:05:12.191Z,1.63
2023-08-25T06:07:40.451Z,2.05
2023-08-25T06:10:09.306Z,1.90
2023-08-25T06:12:37.538Z,1.50
2023-08-25T06:15:05.821Z,1.67
2023-08-25T06:17:34.056Z,1.80
2023-08-25T06:20:04.510Z,1.67
2023-08-25T06:22:32.647Z,1.55
2023-08-25T06:25:00.561Z,1.80
2023-08-25T06:27:30.180Z,1.70
2023-08-25T06:29:58.118Z,1.55
2023-08-25T06:32:26.283Z,1.50
2023-08-25T06:34:54.878Z,1.48
2023-08-25T06:37:23.049Z,1.27
2023-08-25T06:39:51.010Z,1.67
2023-08-25T06:42:19.302Z,1.50
2023-08-25T06:44:48.935Z,1.40
2023-08-25T06:47:17.087Z,1.15
2023-08-25T06:49:44.958Z,1.50
2023-08-25T06:52:13.131Z,1.30
2023-08-25T06:54:41.015Z,1.63
2023-08-25T06:57:09.291Z,1.40
2023-08-25T06:59:37.225Z,1.20
2023-08-25T07:02:05.766Z,1.48
2023-08-25T07:04:33.780Z,1.52
2023-08-25T07:07:02.968Z,1.65
2023-08-25T07:09:31.659Z,1.48
2023-08-25T07:11:59.826Z,1.60
2023-08-25T07:14:30.296Z,1.70
2023-08-25T07:16:58.600Z,1.50
2023-08-25T07:19:27.170Z,1.45
2023-08-25T07:21:55.726Z,1.40
2023-08-25T07:24:23.629Z,1.35
2023-08-25T07:26:51.886Z,1.25
2023-08-25T07:29:19.830Z,2.55
2023-08-25T07:31:48.082Z,1.70
2023-08-25T07:34:16.032Z,1.25
2023-08-25T07:36:47.053Z,1.35
2023-08-25T07:39:15.029Z,1.58
2023-08-25T07:41:43.274Z,1.27
2023-08-25T07:44:11.128Z,1.20
2023-08-25T07:46:40.429Z,1.48
2023-08-25T07:49:09.211Z,1.40
2023-08-25T07:51:40.192Z,1.30
2023-08-25T07:54:09.341Z,1.70
2023-08-25T07:56:37.800Z,1.70
2023-08-25T07:59:06.857Z,1.50
2023-08-25T08:01:35.246Z,1.40
2023-08-25T08:04:06.045Z,1.60
2023-08-25T08:06:36.817Z,1.25
2023-08-25T08:09:07.658Z,1.30
2023-08-25T08:11:36.343Z,1.30
2023-08-25T08:14:04.846Z,1.35
2023-08-25T08:16:35.035Z,1.42
2023-08-25T08:19:06.559Z,1.08
2023-08-25T08:21:35.065Z,1.30
2023-08-25T08:24:03.929Z,1.40
2023-08-25T08:26:32.182Z,1.45
2023-08-25T08:29:00.073Z,1.33
2023-08-25T08:31:28.281Z,1.20
2023-08-25T08:33:56.322Z,1.48
2023-08-25T08:36:24.793Z,1.60
2023-08-25T08:38:53.821Z,1.52
2023-08-25T08:41:22.524Z,1.35
2023-08-25T08:43:53.635Z,1.42
2023-08-25T08:46:22.788Z,1.40
2023-08-25T08:48:53.230Z,1.40
2023-08-25T08:51:24.580Z,1.52
2023-08-25T08:53:53.697Z,1.33
2023-08-25T08:56:22.995Z,1.27
2023-08-25T08:58:52.092Z,1.30
2023-08-25T09:01:21.284Z,1.40
2023-08-25T09:03:51.684Z,1.30
2023-08-25T09:08:51.401Z,1.40
2023-08-25T09:11:19.789Z,1.20
2023-08-25T09:13:58.224Z,1.58
2023-08-25T09:16:26.855Z,1.38
2023-08-25T09:18:55.008Z,1.50
2023-08-25T09:21:27.801Z,1.42
2023-08-25T09:24:04.313Z,1.60
2023-08-25T09:26:39.783Z,1.63
2023-08-25T09:29:07.810Z,1.30
2023-08-25T09:31:38.318Z,1.30
2023-08-25T09:34:08.887Z,1.58
2023-08-25T09:36:57.573Z,1.58
2023-08-25T09:39:25.802Z,1.50
2023-08-25T09:41:55.200Z,1.50
2023-08-25T09:44:23.100Z,1.42
2023-08-25T09:46:52.077Z,1.90
2023-08-25T09:49:20.066Z,1.63
2023-08-25T09:51:51.648Z,1.65
2023-08-25T09:54:20.655Z,1.63
2023-08-25T09:56:49.404Z,1.63
2023-08-25T09:59:18.224Z,1.75
2023-08-25T10:01:47.363Z,1.48
2023-08-25T10:04:17.791Z,1.50
2023-08-25T10:06:46.217Z,1.50
2023-08-25T10:09:14.222Z,1.58
2023-08-25T10:11:46.833Z,1.73
2023-08-25T10:14:15.338Z,1.50
2023-08-25T10:16:54.126Z,1.88
2023-08-25T10:19:27.955Z,1.60
2023-08-25T10:21:57.137Z,1.73
2023-08-25T10:24:27.217Z,1.50
2023-08-25T10:26:56.442Z,1.60
2023-08-25T10:29:26.150Z,1.63
2023-08-25T10:32:05.447Z,1.50
2023-08-25T10:34:43.186Z,1.60
2023-08-25T10:37:12.773Z,1.60
2023-08-25T10:39:50.523Z,1.55
2023-08-25T10:42:32.273Z,1.77
2023-08-25T10:45:11.042Z,1.50
2023-08-25T10:47:46.546Z,1.50
2023-08-25T10:50:21.147Z,1.33
2023-08-25T10:52:53.824Z,1.65
2023-08-25T10:55:33.425Z,1.40
2023-08-25T10:58:07.533Z,1.58
2023-08-25T11:00:39.665Z,1.85
2023-08-25T11:03:07.873Z,1.42
2023-08-25T11:05:37.352Z,1.67
2023-08-25T11:10:23.546Z,1.70
2023-08-25T11:13:09.312Z,1.80
2023-08-25T11:15:39.858Z,1.73
2023-08-25T11:18:09.889Z,1.70
2023-08-25T11:20:46.896Z,1.80
2023-08-25T11:23:20.802Z,1.58
2023-08-25T11:25:49.748Z,1.85
2023-08-25T11:28:25.056Z,1.95
2023-08-25T11:30:53.151Z,1.80
2023-08-25T11:33:22.603Z,1.90
2023-08-25T11:35:50.533Z,1.75
2023-08-25T11:38:18.843Z,1.50
2023-08-25T11:40:47.012Z,1.50
2023-08-25T11:43:15.245Z,1.55
2023-08-25T11:45:46.713Z,1.58
2023-08-25T11:48:15.089Z,1.65
2023-08-25T11:50:42.981Z,1.70
2023-08-25T11:53:11.641Z,1.60
2023-08-25T11:55:39.559Z,1.70
2023-08-25T11:58:09.027Z,1.30
2023-08-25T12:00:38.766Z,1.70
2023-08-25T12:03:08.516Z,1.30
2023-08-25T12:05:38.037Z,1.40
2023-08-25T12:08:06.607Z,1.40
2023-08-25T12:10:40.657Z,1.30
2023-08-25T12:13:09.073Z,1.40
2023-08-25T12:15:45.622Z,1.50
2023-08-25T12:18:14.534Z,1.65
2023-08-25T12:20:45.898Z,1.30
2023-08-25T12:23:15.394Z,1.23
2023-08-25T12:25:43.900Z,1.50
2023-08-25T12:28:12.526Z,1.20
2023-08-25T12:30:40.897Z,1.20
2023-08-25T12:33:09.361Z,1.15
2023-08-25T12:35:37.363Z,1.50
2023-08-25T12:38:05.675Z,1.05
2023-08-25T12:40:33.705Z,1.20
2023-08-25T12:43:01.836Z,1.27
2023-08-25T12:45:32.780Z,1.30
2023-08-25T12:48:01.482Z,1.20
2023-08-25T12:50:30.563Z,1.20
2023-08-25T12:52:59.448Z,1.35
2023-08-25T12:55:27.555Z,1.25
2023-08-25T12:57:56.310Z,1.13
2023-08-25T13:00:24.497Z,1.27
2023-08-25T13:02:55.122Z,1.50
2023-08-25T13:05:25.015Z,1.40
2023-08-25T13:07:53.732Z,1.90
2023-08-25T13:10:21.825Z,1.30
2023-08-25T13:12:50.515Z,1.35
2023-08-25T13:15:18.428Z,1.30
2023-08-25T13:17:46.706Z,1.40
2023-08-25T13:20:14.728Z,1.33
2023-08-25T13:22:42.997Z,1.30
2023-08-25T13:25:11.228Z,1.48
2023-08-25T13:27:41.433Z,1.20
2023-08-25T13:30:13.600Z,1.50
2023-08-25T13:32:42.278Z,1.40
2023-08-25T13:35:11.281Z,1.27
2023-08-25T13:37:39.727Z,1.30
2023-08-25T13:40:09.246Z,1.40
2023-08-25T13:42:37.947Z,1.40
2023-08-25T13:45:06.520Z,1.30
2023-08-25T13:47:34.989Z,1.50
2023-08-25T13:50:03.215Z,1.45
2023-08-25T13:52:32.029Z,1.58
2023-08-25T13:55:00.416Z,1.73
2023-08-25T13:57:29.162Z,1.55
2023-08-25T13:59:57.885Z,1.70
2023-08-25T14:02:26.237Z,1.73
2023-08-25T14:04:54.307Z,1.42
2023-08-25T14:07:23.596Z,1.50
2023-08-25T14:09:51.765Z,1.60
2023-08-25T14:12:20.083Z,1.60
2023-08-25T14:14:47.999Z,1.75
2023-08-25T14:17:16.632Z,1.60
2023-08-25T14:19:44.666Z,1.80
2023-08-25T14:22:12.916Z,1.60
2023-08-25T14:24:43.392Z,1.50
2023-08-25T14:27:13.762Z,1.60
2023-08-25T14:29:41.681Z,1.77
2023-08-25T14:32:09.844Z,1.70
2023-08-25T14:34:37.897Z,1.67
2023-08-25T14:37:06.436Z,2.38
2023-08-25T14:39:34.406Z,1.60
2023-08-25T14:42:03.998Z,1.50
2023-08-25T14:44:31.909Z,1.60
2023-08-25T14:47:02.631Z,1.70
2023-08-25T14:49:30.457Z,1.83
2023-08-25T14:51:58.778Z,1.75
2023-08-25T14:54:27.781Z,1.60
2023-08-25T14:56:56.941Z,1.73
2023-08-25T14:59:27.349Z,1.63
2023-08-25T15:01:56.144Z,1.60
2023-08-25T15:04:24.055Z,1.60
2023-08-25T15:06:52.413Z,1.67
2023-08-25T15:09:20.671Z,1.85
2023-08-25T15:11:49.000Z,1.73
2023-08-25T15:14:17.010Z,1.85
2023-08-25T15:16:47.970Z,1.80
2023-08-25T15:19:15.865Z,1.67
2023-08-25T15:21:44.329Z,1.90
2023-08-25T15:24:12.330Z,1.60
2023-08-25T15:26:40.815Z,1.60
2023-08-25T15:29:08.733Z,1.75
2023-08-25T15:31:37.771Z,1.80
2023-08-25T15:34:05.959Z,1.92
2023-08-25T15:36:34.246Z,1.80
2023-08-25T15:39:04.534Z,2.00
2023-08-25T15:41:37.551Z,2.03
2023-08-25T15:44:06.315Z,1.88
2023-08-25T15:46:34.597Z,2.00
2023-08-25T15:51:27.909Z,2.05
2023-08-25T15:53:58.463Z,1.90
2023-08-25T15:56:26.740Z,1.90
2023-08-25T15:58:55.341Z,2.00
2023-08-25T16:01:23.366Z,2.00
2023-08-25T16:03:52.256Z,1.90
2023-08-25T16:06:20.699Z,1.73
2023-08-25T16:08:49.248Z,1.98
2023-08-25T16:11:17.685Z,2.00
2023-08-25T16:13:46.904Z,1.85
2023-08-25T16:16:15.143Z,1.90
2023-08-25T16:18:44.402Z,1.98
2023-08-25T16:21:12.599Z,1.98
2023-08-25T16:23:41.514Z,1.80
2023-08-25T16:28:24.675Z,2.00
2023-08-25T16:31:04.725Z,2.17
2023-08-25T16:33:34.203Z,1.98
2023-08-25T16:36:04.269Z,2.05
2023-08-25T16:38:33.732Z,2.00
2023-08-25T16:41:02.221Z,1.77
2023-08-25T16:43:30.136Z,1.88
2023-08-25T16:45:58.409Z,2.15
2023-08-25T16:48:27.391Z,1.63
2023-08-25T16:50:55.931Z,1.90
2023-08-25T16:53:23.859Z,2.00
2023-08-25T16:55:52.219Z,1.77
2023-08-25T16:58:20.244Z,1.90
2023-08-25T17:00:49.377Z,1.95
2023-08-25T17:03:17.968Z,1.90
2023-08-25T17:05:46.594Z,1.83
2023-08-25T17:08:15.591Z,2.47
2023-08-25T17:10:47.541Z,2.00
2023-08-25T17:13:15.593Z,2.10
2023-08-25T17:15:44.316Z,1.90
2023-08-25T17:18:13.152Z,2.00
2023-08-25T17:20:41.663Z,1.80
2023-08-25T17:23:09.556Z,1.90
2023-08-25T17:25:39.188Z,1.90
2023-08-25T17:28:09.288Z,1.90
2023-08-25T17:30:37.870Z,1.98
2023-08-25T17:33:06.174Z,2.15
2023-08-25T17:35:42.298Z,1.85
2023-08-25T17:38:11.292Z,2.20
2023-08-25T17:40:42.945Z,2.22
2023-08-25T17:43:11.621Z,1.77
2023-08-25T17:45:40.100Z,2.30
2023-08-25T17:48:08.132Z,2.60
2023-08-25T17:50:39.418Z,2.40
2023-08-25T17:53:07.417Z,2.40
2023-08-25T17:55:36.144Z,2.40
2023-08-25T17:58:04.651Z,2.00
2023-08-25T18:00:33.104Z,2.10
2023-08-25T18:03:01.062Z,2.00
2023-08-25T18:05:30.918Z,2.00
2023-08-25T18:07:59.018Z,1.88
2023-08-25T18:10:27.386Z,2.10
2023-08-25T18:12:56.098Z,2.55
2023-08-25T18:15:24.698Z,2.55
2023-08-25T18:17:52.899Z,2.17
2023-08-25T18:20:21.172Z,2.10
2023-08-25T18:22:51.607Z,2.75
2023-08-25T18:25:20.139Z,1.88
2023-08-25T18:27:48.097Z,1.80
2023-08-25T18:30:20.787Z,2.10
2023-08-25T18:32:48.746Z,2.03
2023-08-25T18:35:17.213Z,2.20
2023-08-25T18:37:46.185Z,1.98
2023-08-25T18:40:14.872Z,1.92
2023-08-25T18:42:42.860Z,2.08
2023-08-25T18:45:11.501Z,2.00
2023-08-25T18:47:39.507Z,2.28
2023-08-25T18:50:10.681Z,2.00
2023-08-25T18:52:39.675Z,3.55
2023-08-25T18:55:08.437Z,2.65
2023-08-25T18:57:37.563Z,2.00
2023-08-25T19:00:09.860Z,1.73
2023-08-25T19:02:38.156Z,2.10
2023-08-25T19:05:07.208Z,2.65
2023-08-25T19:07:35.340Z,2.00
2023-08-25T19:10:03.892Z,2.10
2023-08-25T19:12:32.076Z,2.28
2023-08-25T19:15:00.314Z,2.30
2023-08-25T19:17:28.175Z,2.22
2023-08-25T19:19:56.599Z,2.00
2023-08-25T19:22:24.560Z,2.85
2023-08-25T19:24:53.102Z,1.90
2023-08-25T19:27:20.937Z,2.10
2023-08-25T19:29:49.192Z,2.00
2023-08-25T19:32:17.010Z,2.15
2023-08-25T19:34:45.384Z,2.28
2023-08-25T19:37:13.281Z,1.90
2023-08-25T19:39:41.532Z,1.90
2023-08-25T19:42:09.668Z,2.00
2023-08-25T19:44:38.193Z,2.00
2023-08-25T19:47:06.561Z,1.90
2023-08-25T19:49:35.398Z,1.92
2023-08-25T19:52:04.890Z,2.20
2023-08-25T19:54:33.187Z,2.30
2023-08-25T19:57:01.244Z,2.10
2023-08-25T20:02:01.955Z,1.83
2023-08-25T20:04:30.504Z,2.50
2023-08-25T20:06:58.516Z,2.03
2023-08-25T20:09:31.753Z,2.20
2023-08-25T20:12:03.146Z,2.00
2023-08-25T20:14:31.579Z,2.00
2023-08-25T20:17:02.076Z,2.33
2023-08-25T20:19:30.651Z,2.08
2023-08-25T20:21:58.667Z,2.15
2023-08-25T20:24:27.279Z,2.30
2023-08-25T20:26:56.434Z,2.25
2023-08-25T20:29:24.991Z,2.00
2023-08-25T20:31:53.009Z,2.00
2023-08-25T20:34:23.593Z,2.00
2023-08-25T20:36:52.275Z,2.30
2023-08-25T20:39:21.209Z,2.15
2023-08-25T20:41:49.487Z,1.98
2023-08-25T20:44:19.763Z,2.63
2023-08-25T20:46:55.926Z,2.13
2023-08-25T20:49:26.463Z,2.20
2023-08-25T20:51:55.230Z,2.10
2023-08-25T20:54:24.939Z,2.20
2023-08-25T20:56:57.142Z,1.95
2023-08-25T20:59:26.551Z,2.20
2023-08-25T21:01:54.889Z,1.80
2023-08-25T21:04:23.603Z,1.90
2023-08-25T21:06:52.096Z,1.83
2023-08-25T21:09:21.494Z,1.77
2023-08-25T21:11:53.855Z,2.00
2023-08-25T21:14:23.648Z,1.80
2023-08-25T21:16:52.617Z,1.70
2023-08-25T21:19:21.501Z,1.80
2023-08-25T21:21:49.930Z,1.80
2023-08-25T21:24:19.074Z,1.90
2023-08-25T21:26:47.487Z,1.88
2023-08-25T21:29:16.636Z,1.80
2023-08-25T21:31:45.374Z,1.75
2023-08-25T21:34:14.827Z,2.10
2023-08-25T21:36:43.297Z,1.70
2023-08-25T21:39:15.140Z,1.80
2023-08-25T21:44:20.233Z,1.88
2023-08-25T21:46:50.253Z,1.90
2023-08-25T21:49:19.233Z,1.80
2023-08-25T21:51:49.004Z,1.75
2023-08-25T21:54:18.448Z,2.10
2023-08-25T21:59:18.319Z,2.00
2023-08-25T22:01:46.850Z,1.80
2023-08-25T22:04:15.540Z,1.95
2023-08-25T22:06:44.346Z,2.05
2023-08-25T22:09:15.091Z,2.00
2023-08-25T22:11:44.866Z,2.25
2023-08-25T22:14:15.157Z,2.40
2023-08-25T22:16:44.944Z,2.25
2023-08-25T22:19:13.847Z,2.20
2023-08-25T22:21:42.914Z,2.22
2023-08-25T22:24:14.451Z,2.10
2023-08-25T22:26:46.006Z,2.30
2023-08-25T22:29:16.183Z,2.30
2023-08-25T22:31:46.774Z,2.30
2023-08-25T22:34:17.036Z,2.55
2023-08-25T22:36:45.442Z,2.20
2023-08-25T22:39:16.663Z,2.20
2023-08-25T22:41:45.580Z,2.03
2023-08-25T22:44:19.265Z,2.15
2023-08-25T22:46:49.210Z,2.40
2023-08-25T22:49:19.089Z,2.15
2023-08-25T22:51:49.172Z,2.40
2023-08-25T22:54:20.117Z,2.15
2023-08-25T22:56:50.349Z,2.20
2023-08-25T22:59:18.710Z,2.20
2023-08-25T23:01:49.280Z,2.38
2023-08-25T23:04:19.844Z,2.20
2023-08-25T23:06:51.052Z,2.30
2023-08-25T23:09:20.159Z,2.42
2023-08-25T23:11:48.403Z,2.47
2023-08-25T23:14:16.948Z,2.25
2023-08-25T23:16:45.133Z,2.03
2023-08-25T23:19:13.634Z,2.17
2023-08-25T23:21:41.773Z,2.10
2023-08-25T23:24:10.396Z,2.33
2023-08-25T23:26:38.704Z,2.28
2023-08-25T23:29:07.838Z,2.03
2023-08-25T23:31:36.133Z,2.40
2023-08-25T23:34:04.699Z,1.95
2023-08-25T23:36:32.922Z,2.28
2023-08-25T23:39:01.170Z,2.25
2023-08-25T23:41:29.214Z,2.10
2023-08-25T23:43:57.832Z,2.20
2023-08-25T23:46:26.217Z,2.47
2023-08-25T23:48:54.500Z,2.20
2023-08-25T23:51:27.883Z,2.10
2023-08-25T23:56:24.242Z,2.10
2023-08-25T23:58:52.627Z,2.05
